Country
Station

 

Weather  for  Kulusuk Lufthavn  -  Greenland    Greenland

  
-5 °C (23 °F)
    
 
 

Current METAR for Kulusuk Lufthavn is :

BGKK 210750Z AUTO 36005KT 300V050 9999NDV OVC064/// M05/M14 Q0982

 

This is a report for Kulusuk Lufthavn - Greenland.
 
The report was made 42 minutes ago, at 07:50 UTC .
The wind was blowing at a speed of 2.6 meters per second (5.8 miles per hour) from north (360°), varying between west/northwest (300°) and northeast (050°).
 
The temperature was -5 °C (23 °F), with a dew-point at -14 °C (7 °F).
The temperature felt like -9 °C (16 °F).
 
The atmospheric pressure was 982 hPa (29.00 inHg).
The relative humidity was 49.1%.
 

 
 
 
 

Country :   A   B   C   D   E   F   G   H   I   J   K   L   M   N   O   P   Q   R   S   T   U   V   W   Y   Z

 

Site Info  |  Disclaimer  |  Credits  |  Privacy
Contact us  |  Add to favorites
© 2013-2019 METARs - All rights reserved